Time;durP1;ratioP1;P1;durP2;ratioP2;P2;SDS_P1;SDS_P2;PMS_P1;PMS_P2;Temp;Humidity;BMP_temperature;BMP_pressure;BME280_temperature;BME280_humidity;BME280_pressure;Samples;Min_cycle;Max_cycle;Signal;HPM_P1;HPM_P2
2022/12/30 00:01:55;;;;;;;9.37;2.50;;;10.90;80.40;;;;;;5041784;28;20493;-69
2022/12/30 00:04:23;;;;;;;8.90;2.10;;;10.90;80.30;;;;;;5043831;28;20459;-71
2022/12/30 00:06:52;;;;;;;9.73;2.33;;;10.90;80.30;;;;;;5044442;28;20504;-72
2022/12/30 00:09:20;;;;;;;8.20;3.23;;;10.80;80.30;;;;;;5044607;28;20459;-72
2022/12/30 00:11:48;;;;;;;6.23;1.73;;;10.80;80.30;;;;;;5043112;28;20566;-70
2022/12/30 00:33:55;;;;;;;8.17;2.20;;;10.70;80.10;;;;;;5040045;28;20995;-70
2022/12/30 00:36:25;;;;;;;10.67;2.03;;;10.60;80.00;;;;;;5042418;28;20463;-70
2022/12/30 00:38:55;;;;;;;8.13;2.00;;;10.60;80.00;;;;;;5042011;28;20470;-70
2022/12/30 00:44:09;;;;;;;8.10;2.70;;;10.60;80.10;;;;;;5042701;28;20467;-71
2022/12/30 00:46:39;;;;;;;7.40;2.10;;;10.50;80.00;;;;;;5042923;28;20463;-71
2022/12/30 00:57:24;;;;;;;8.27;2.33;;;10.50;80.00;;;;;;5041459;28;20487;-71
2022/12/30 00:59:52;;;;;;;7.00;2.27;;;10.50;80.00;;;;;;5042273;28;20956;-71
2022/12/30 01:02:20;;;;;;;7.33;1.77;;;10.50;80.00;;;;;;5039543;28;20478;-71
2022/12/30 01:04:48;;;;;;;11.87;2.33;;;10.50;80.00;;;;;;5040520;28;20475;-70
2022/12/30 01:07:16;;;;;;;12.77;2.33;;;10.50;80.00;;;;;;5056957;28;20471;-69
2022/12/30 01:09:46;;;;;;;6.73;1.57;;;10.50;80.00;;;;;;5040247;28;20813;-71
2022/12/30 01:12:13;;;;;;;7.43;2.30;;;10.50;79.90;;;;;;5040665;28;20552;-69
2022/12/30 01:14:43;;;;;;;9.30;2.17;;;10.50;79.80;;;;;;5041288;28;21091;-70
2022/12/30 01:17:12;;;;;;;12.60;2.57;;;10.40;79.80;;;;;;5040017;28;20459;-70
2022/12/30 01:19:41;;;;;;;6.73;2.00;;;10.40;79.70;;;;;;5041652;28;20520;-70
2022/12/30 01:22:09;;;;;;;7.50;2.00;;;10.40;79.70;;;;;;5040839;28;20495;-69
2022/12/30 01:24:38;;;;;;;8.23;2.33;;;10.30;79.60;;;;;;5041795;28;20493;-70
2022/12/30 01:27:08;;;;;;;6.70;2.17;;;10.20;79.70;;;;;;5043204;28;20853;-70
2022/12/30 01:29:38;;;;;;;7.40;1.87;;;10.20;79.80;;;;;;5041199;28;20458;-70
2022/12/30 01:32:07;;;;;;;7.57;2.60;;;10.20;79.80;;;;;;5040365;28;20490;-69
2022/12/30 01:34:36;;;;;;;10.83;2.30;;;10.20;79.80;;;;;;5041612;28;20459;-70
2022/12/30 01:37:05;;;;;;;6.60;2.23;;;10.20;79.70;;;;;;5043063;28;20490;-70
2022/12/30 01:39:33;;;;;;;8.37;2.50;;;10.20;79.70;;;;;;5040887;28;20474;-70
2022/12/30 01:42:01;;;;;;;8.40;2.20;;;10.20;79.70;;;;;;5041782;28;20475;-70
2022/12/30 01:45:13;;;;;;;7.67;2.23;;;10.20;79.70;;;;;;5040162;28;20451;-69
2022/12/30 01:47:44;;;;;;;7.07;2.10;;;10.10;79.70;;;;;;5005984;28;20460;-70
2022/12/30 01:50:27;;;;;;;10.37;2.60;;;10.10;79.70;;;;;;5036530;28;20471;-69
2022/12/30 01:53:01;;;;;;;6.33;2.50;;;10.10;79.80;;;;;;5041073;28;20498;-70
2022/12/30 01:55:33;;;;;;;9.60;2.80;;;10.10;79.80;;;;;;5040449;28;20451;-71
2022/12/30 01:58:04;;;;;;;9.53;2.63;;;10.10;79.80;;;;;;5041844;28;20521;-71
2022/12/30 02:00:34;;;;;;;10.27;3.10;;;10.10;79.70;;;;;;5041393;28;20459;-70
2022/12/30 02:03:02;;;;;;;8.40;3.17;;;10.00;79.70;;;;;;5040025;28;20538;-70
2022/12/30 02:05:32;;;;;;;7.60;3.10;;;10.00;79.70;;;;;;5056289;28;20456;-70
2022/12/30 02:08:06;;;;;;;8.50;3.40;;;10.00;79.80;;;;;;5041650;28;20458;-70
2022/12/30 02:10:38;;;;;;;11.07;2.90;;;10.00;79.80;;;;;;5042257;28;20988;-70
2022/12/30 02:13:06;;;;;;;6.17;2.37;;;10.00;79.80;;;;;;5045709;28;21090;-70
2022/12/30 02:15:50;;;;;;;6.90;2.63;;;10.00;79.80;;;;;;5048729;28;21002;-70
2022/12/30 02:18:26;;;;;;;5.97;2.40;;;10.00;79.90;;;;;;5046225;28;20470;-72
2022/12/30 02:21:15;;;;;;;13.63;3.03;;;10.00;79.80;;;;;;5064033;28;20455;-69
2022/12/30 02:24:01;;;;;;;9.60;3.43;;;10.00;79.80;;;;;;5046900;28;20490;-71
2022/12/30 02:26:47;;;;;;;8.63;2.67;;;10.00;79.90;;;;;;5047203;28;20462;-71
2022/12/30 02:29:52;;;;;;;6.10;2.40;;;10.00;79.90;;;;;;5047354;28;20951;-71
2022/12/30 02:32:27;;;;;;;8.40;3.20;;;10.00;79.90;;;;;;5049018;28;20545;-71
2022/12/30 02:35:03;;;;;;;7.03;2.63;;;10.00;79.90;;;;;;5047942;28;20454;-71
2022/12/30 02:37:38;;;;;;;7.87;2.60;;;10.00;79.90;;;;;;5047756;28;20455;-71
2022/12/30 02:40:13;;;;;;;8.27;2.70;;;10.00;79.80;;;;;;5048739;28;21123;-70
2022/12/30 02:45:35;;;;;;;7.33;3.20;;;10.00;80.00;;;;;;5048137;28;20520;-70
2022/12/30 02:48:09;;;;;;;7.87;2.87;;;10.00;79.90;;;;;;5048432;28;20451;-70
2022/12/30 02:53:29;;;;;;;10.40;3.03;;;10.00;80.00;;;;;;5047472;28;20516;-70
2022/12/30 02:55:57;;;;;;;7.17;2.70;;;10.00;80.00;;;;;;5048400;28;20465;-71
2022/12/30 02:58:28;;;;;;;10.00;3.10;;;9.90;79.90;;;;;;5048436;28;20459;-70
2022/12/30 03:04:10;;;;;;;9.30;2.70;;;9.90;79.90;;;;;;5047802;28;20446;-70
2022/12/30 03:06:53;;;;;;;12.13;3.00;;;9.90;79.90;;;;;;5046609;28;20455;-71
2022/12/30 03:09:36;;;;;;;8.13;2.90;;;9.80;79.90;;;;;;5047410;28;20474;-70
2022/12/30 03:12:09;;;;;;;5.87;2.13;;;9.80;79.90;;;;;;5047476;28;20489;-71
2022/12/30 03:14:43;;;;;;;8.87;2.70;;;9.80;79.80;;;;;;5047254;28;20470;-70
2022/12/30 03:17:17;;;;;;;6.40;2.40;;;9.70;79.70;;;;;;5046872;28;20458;-70
2022/12/30 03:19:52;;;;;;;13.57;2.53;;;9.70;79.80;;;;;;5046496;28;20466;-70
2022/12/30 03:28:10;;;;;;;10.53;2.67;;;9.70;79.80;;;;;;4982796;28;20469;-70
2022/12/30 03:30:44;;;;;;;12.27;2.97;;;9.70;79.80;;;;;;5033740;28;20459;-71
2022/12/30 03:33:13;;;;;;;7.07;2.30;;;9.70;79.80;;;;;;5044072;28;21172;-71
2022/12/30 03:35:49;;;;;;;8.07;2.60;;;9.60;79.60;;;;;;5044414;28;21300;-70
2022/12/30 03:38:20;;;;;;;8.37;2.50;;;9.60;79.60;;;;;;5044948;28;20446;-71
2022/12/30 03:40:50;;;;;;;14.00;2.90;;;9.60;79.50;;;;;;5044160;28;20796;-71
2022/12/30 03:43:19;;;;;;;14.77;4.27;;;9.50;79.50;;;;;;5043406;28;20505;-71
2022/12/30 03:45:48;;;;;;;11.27;2.57;;;9.50;79.60;;;;;;5044278;28;20443;-70
2022/12/30 03:48:15;;;;;;;11.30;2.90;;;9.50;79.60;;;;;;5044387;28;20528;-70
2022/12/30 03:50:46;;;;;;;10.83;2.60;;;9.50;79.50;;;;;;5044262;28;20978;-71
2022/12/30 03:53:14;;;;;;;18.33;2.83;;;9.50;79.60;;;;;;5042187;28;21175;-70
2022/12/30 03:55:42;;;;;;;10.03;3.03;;;9.40;79.50;;;;;;5044445;28;20474;-70
2022/12/30 03:58:09;;;;;;;9.53;2.67;;;9.40;79.50;;;;;;5043270;28;20470;-70
2022/12/30 04:00:37;;;;;;;8.37;2.57;;;9.40;79.50;;;;;;5040434;28;20470;-70
2022/12/30 04:03:05;;;;;;;10.40;2.43;;;9.40;79.60;;;;;;5041586;28;21403;-70
2022/12/30 04:05:33;;;;;;;7.17;2.43;;;9.40;79.50;;;;;;5058776;28;20458;-70
2022/12/30 04:08:02;;;;;;;9.37;3.10;;;9.30;79.40;;;;;;5043426;28;20512;-70
2022/12/30 04:10:30;;;;;;;8.87;2.20;;;9.30;79.50;;;;;;5043530;28;20454;-71
2022/12/30 04:12:58;;;;;;;7.60;2.30;;;9.30;79.50;;;;;;5039925;28;20513;-71
2022/12/30 04:15:26;;;;;;;11.30;2.23;;;9.30;79.40;;;;;;5043705;28;20889;-71
2022/12/30 04:17:54;;;;;;;9.50;2.53;;;9.30;79.40;;;;;;5043476;28;20470;-70
2022/12/30 04:20:22;;;;;;;10.90;2.40;;;9.30;79.40;;;;;;5042693;28;20470;-71
2022/12/30 04:22:50;;;;;;;6.73;2.70;;;9.30;79.40;;;;;;5042172;28;20508;-71
2022/12/30 04:25:19;;;;;;;9.97;2.57;;;9.30;79.40;;;;;;5058019;28;20466;-71
2022/12/30 04:27:47;;;;;;;8.10;2.80;;;9.20;79.40;;;;;;5041411;28;21393;-70
2022/12/30 04:30:15;;;;;;;10.10;2.63;;;9.20;79.40;;;;;;5042296;28;20467;-70
2022/12/30 04:32:43;;;;;;;12.90;3.70;;;9.20;79.50;;;;;;5043361;28;20510;-71
2022/12/30 04:35:11;;;;;;;21.00;3.63;;;9.20;79.50;;;;;;5042732;28;20471;-70
2022/12/30 04:37:39;;;;;;;8.13;2.80;;;9.20;79.50;;;;;;5042005;28;20473;-70
2022/12/30 04:40:08;;;;;;;13.20;3.30;;;9.30;79.60;;;;;;5040970;28;20455;-70
2022/12/30 04:42:37;;;;;;;9.97;2.63;;;9.20;79.60;;;;;;5041503;28;21003;-70
2022/12/30 04:45:06;;;;;;;15.43;3.37;;;9.20;79.60;;;;;;5041930;28;20906;-70
2022/12/30 04:47:34;;;;;;;10.80;3.13;;;9.20;79.50;;;;;;5043719;28;20475;-70
2022/12/30 04:50:02;;;;;;;11.03;3.00;;;9.20;79.60;;;;;;5059609;28;20457;-70
2022/12/30 04:52:30;;;;;;;14.13;3.33;;;9.20;79.60;;;;;;5041205;28;20545;-70
2022/12/30 04:54:58;;;;;;;13.80;3.37;;;9.20;79.60;;;;;;5043930;28;20490;-70
2022/12/30 04:57:26;;;;;;;11.63;2.50;;;9.20;79.70;;;;;;5039926;28;20470;-70
2022/12/30 04:59:55;;;;;;;10.85;3.05;;;9.20;79.70;;;;;;5042764;28;21006;-70
2022/12/30 05:02:23;;;;;;;8.60;2.90;;;9.20;79.70;;;;;;5041783;28;20233;-70
2022/12/30 05:04:51;;;;;;;8.20;2.63;;;9.20;79.70;;;;;;5043116;28;20513;-71
2022/12/30 05:07:19;;;;;;;9.23;3.30;;;9.20;79.70;;;;;;5044021;28;20967;-70
2022/12/30 05:09:47;;;;;;;11.97;3.80;;;9.20;79.60;;;;;;5043293;28;20474;-70
2022/12/30 05:12:15;;;;;;;12.27;3.50;;;9.20;79.60;;;;;;5043243;28;20482;-70
2022/12/30 05:14:43;;;;;;;7.97;2.93;;;9.10;79.70;;;;;;5041928;28;20478;-70
2022/12/30 05:17:12;;;;;;;12.00;3.30;;;9.10;79.80;;;;;;5042128;28;20467;-71
2022/12/30 05:19:40;;;;;;;12.23;2.83;;;9.10;79.70;;;;;;5043709;28;20462;-71
2022/12/30 05:22:08;;;;;;;10.70;3.10;;;9.10;79.70;;;;;;5056870;28;20489;-71
2022/12/30 05:27:21;;;;;;;9.98;3.40;;;9.10;79.60;;;;;;5042865;28;20466;-73
2022/12/30 05:29:49;;;;;;;6.73;2.90;;;9.10;79.60;;;;;;5040577;28;20227;-71
2022/12/30 05:32:19;;;;;;;10.13;3.70;;;9.00;79.60;;;;;;5042169;28;20491;-70
2022/12/30 05:34:47;;;;;;;13.17;4.23;;;9.00;79.60;;;;;;5039860;28;20275;-70
2022/12/30 05:37:15;;;;;;;11.13;3.80;;;9.00;79.60;;;;;;5042562;28;20479;-70
2022/12/30 05:39:43;;;;;;;15.40;3.73;;;9.00;79.50;;;;;;5043626;28;20493;-70
2022/12/30 05:42:11;;;;;;;11.87;4.10;;;9.00;79.60;;;;;;5043567;28;20517;-70
2022/12/30 05:44:38;;;;;;;12.03;3.30;;;9.00;79.60;;;;;;5043595;28;20628;-70
2022/12/30 05:47:06;;;;;;;7.60;3.50;;;9.00;79.60;;;;;;5042535;28;21182;-70
2022/12/30 05:49:36;;;;;;;12.30;3.73;;;8.90;79.70;;;;;;5044035;28;20474;-70
2022/12/30 05:52:11;;;;;;;11.97;3.93;;;8.90;79.60;;;;;;5041281;28;21106;-70
2022/12/30 05:54:39;;;;;;;10.10;3.93;;;8.90;79.50;;;;;;5044833;28;20482;-70
2022/12/30 05:57:07;;;;;;;14.83;4.23;;;8.90;79.60;;;;;;5050609;28;20470;-70
2022/12/30 05:59:35;;;;;;;11.10;3.87;;;8.80;79.70;;;;;;5050082;28;20461;-71
2022/12/30 06:02:03;;;;;;;11.25;4.13;;;8.80;79.60;;;;;;5052251;28;20548;-71
2022/12/30 06:04:31;;;;;;;16.33;4.37;;;8.80;79.50;;;;;;5052791;28;20189;-71
2022/12/30 06:07:00;;;;;;;13.57;3.93;;;8.80;79.60;;;;;;5054218;28;20447;-70
2022/12/30 06:09:28;;;;;;;10.23;3.83;;;8.70;79.70;;;;;;5050213;28;20470;-71
2022/12/30 06:11:56;;;;;;;11.30;4.30;;;8.70;79.70;;;;;;5051523;28;20478;-71
2022/12/30 06:14:24;;;;;;;8.57;3.97;;;8.70;79.80;;;;;;5051972;28;20562;-70
2022/12/30 06:16:52;;;;;;;9.90;3.70;;;8.70;79.80;;;;;;5052842;28;20465;-71
2022/12/30 06:19:20;;;;;;;11.10;4.63;;;8.70;79.70;;;;;;5048225;28;20463;-71
2022/12/30 06:21:48;;;;;;;12.87;4.23;;;8.60;79.70;;;;;;5050222;28;20474;-71
2022/12/30 06:24:17;;;;;;;10.27;3.60;;;8.60;79.80;;;;;;5049095;28;20451;-70
2022/12/30 06:26:45;;;;;;;13.33;3.97;;;8.60;79.90;;;;;;5052098;28;20455;-71
2022/12/30 06:29:13;;;;;;;13.80;3.93;;;8.60;79.90;;;;;;5050490;28;20867;-71
2022/12/30 06:31:40;;;;;;;11.77;3.93;;;8.70;80.00;;;;;;5044498;28;21135;-70
2022/12/30 06:34:08;;;;;;;8.47;3.53;;;8.70;80.00;;;;;;5043650;28;20936;-71
2022/12/30 06:36:36;;;;;;;15.00;4.17;;;8.70;80.00;;;;;;5058923;28;20462;-70
2022/12/30 06:39:04;;;;;;;13.33;4.30;;;8.70;80.00;;;;;;5042243;28;20548;-70
2022/12/30 06:41:33;;;;;;;14.17;4.17;;;8.80;80.00;;;;;;5043553;28;20933;-69
2022/12/30 06:44:01;;;;;;;11.50;3.30;;;8.80;79.90;;;;;;5044196;28;20455;-70
2022/12/30 06:46:29;;;;;;;15.27;4.00;;;8.80;79.90;;;;;;5041650;28;20476;-70
2022/12/30 06:48:57;;;;;;;13.87;4.70;;;8.80;79.90;;;;;;5040401;28;20471;-71
2022/12/30 06:51:25;;;;;;;14.03;4.70;;;8.80;79.80;;;;;;5038878;28;20459;-71
2022/12/30 06:53:53;;;;;;;12.33;4.20;;;8.80;79.90;;;;;;5043459;28;20611;-70
2022/12/30 06:56:21;;;;;;;26.37;11.07;;;8.80;79.90;;;;;;5042518;28;20770;-71
2022/12/30 06:58:50;;;;;;;16.10;8.57;;;8.80;79.90;;;;;;5042324;28;20473;-70
2022/12/30 07:01:18;;;;;;;18.20;6.80;;;8.90;79.90;;;;;;5044124;28;20443;-69
2022/12/30 07:03:46;;;;;;;16.83;5.90;;;8.90;79.90;;;;;;5046156;28;20482;-69
2022/12/30 07:06:14;;;;;;;15.23;4.93;;;8.90;80.00;;;;;;5045807;28;21054;-71
2022/12/30 07:08:42;;;;;;;16.93;5.07;;;8.90;80.00;;;;;;5045268;28;20450;-71
2022/12/30 07:11:10;;;;;;;15.10;4.87;;;9.00;80.20;;;;;;5045558;28;20455;-71
2022/12/30 07:13:38;;;;;;;10.53;4.20;;;9.00;80.20;;;;;;5049791;28;20478;-70
2022/12/30 07:16:08;;;;;;;12.20;5.20;;;9.00;80.20;;;;;;5048899;28;21041;-70
2022/12/30 07:18:36;;;;;;;82.90;39.33;;;9.10;80.10;;;;;;5045392;28;20458;-70
2022/12/30 07:21:04;;;;;;;27.00;13.40;;;9.10;80.00;;;;;;5045160;28;20980;-70
2022/12/30 07:23:32;;;;;;;20.57;10.30;;;9.00;79.90;;;;;;5045516;28;20531;-70
2022/12/30 07:26:00;;;;;;;22.30;10.37;;;9.00;79.90;;;;;;5046581;28;20481;-69
2022/12/30 07:28:28;;;;;;;27.37;11.13;;;9.00;79.80;;;;;;5043937;28;20447;-71
2022/12/30 07:30:56;;;;;;;28.77;13.88;;;8.90;79.90;;;;;;5046182;28;21145;-71
2022/12/30 07:33:25;;;;;;;72.03;38.70;;;8.90;79.90;;;;;;5045020;28;20228;-71
2022/12/30 07:35:53;;;;;;;22.70;14.68;;;8.90;80.00;;;;;;5044199;28;20852;-71
2022/12/30 07:38:21;;;;;;;47.72;18.75;;;8.80;79.80;;;;;;5060421;28;20338;-71
2022/12/30 07:40:49;;;;;;;74.47;36.35;;;8.80;80.00;;;;;;5044848;28;20218;-72
2022/12/30 07:43:17;;;;;;;64.75;32.53;;;8.70;80.10;;;;;;5044694;28;20908;-71
2022/12/30 07:45:45;;;;;;;40.00;21.27;;;8.70;80.20;;;;;;5045361;28;20262;-71
2022/12/30 07:48:13;;;;;;;38.23;18.80;;;8.70;80.30;;;;;;5044381;28;20872;-70
2022/12/30 07:50:42;;;;;;;27.33;13.70;;;8.70;80.40;;;;;;5044946;28;20873;-71
2022/12/30 07:53:10;;;;;;;22.80;12.20;;;8.70;80.40;;;;;;5044225;28;20532;-71
2022/12/30 07:55:39;;;;;;;18.60;10.70;;;8.70;80.40;;;;;;5044458;28;20486;-71
2022/12/30 07:58:07;;;;;;;19.80;10.00;;;8.70;80.40;;;;;;5044547;28;20213;-71
2022/12/30 08:00:36;;;;;;;18.08;8.75;;;8.70;80.40;;;;;;5045191;28;20212;-70
2022/12/30 08:03:04;;;;;;;11.48;6.88;;;8.70;80.40;;;;;;5043770;28;20279;-71
2022/12/30 08:05:32;;;;;;;17.42;6.03;;;8.70;80.40;;;;;;5044506;28;20694;-71
2022/12/30 08:08:02;;;;;;;13.65;5.32;;;8.70;80.50;;;;;;5044295;28;20212;-71
2022/12/30 08:10:30;;;;;;;10.52;4.72;;;8.70;80.50;;;;;;5044340;28;20732;-71
2022/12/30 08:12:57;;;;;;;13.37;5.23;;;8.70;80.40;;;;;;5043741;28;20930;-71
2022/12/30 08:15:25;;;;;;;26.85;13.50;;;8.70;80.40;;;;;;5044320;28;20647;-71
2022/12/30 08:17:53;;;;;;;32.13;17.40;;;8.70;80.50;;;;;;5045965;28;20201;-70
2022/12/30 08:20:21;;;;;;;38.17;20.27;;;8.70;80.50;;;;;;5044521;28;20208;-71
2022/12/30 08:22:49;;;;;;;36.67;21.17;;;8.70;80.60;;;;;;5043061;28;20220;-71
2022/12/30 08:25:19;;;;;;;27.53;15.77;;;8.70;80.60;;;;;;5043978;28;20262;-71
2022/12/30 08:27:46;;;;;;;13.55;6.45;;;8.70;80.70;;;;;;5043750;28;20463;-71
2022/12/30 08:30:14;;;;;;;8.90;5.23;;;8.70;80.80;;;;;;5043194;28;20267;-72
2022/12/30 08:32:42;;;;;;;11.15;6.85;;;8.70;80.80;;;;;;5062297;28;20490;-72
2022/12/30 08:35:10;;;;;;;15.65;6.97;;;8.70;80.80;;;;;;5044277;28;20221;-71
2022/12/30 08:37:40;;;;;;;21.23;9.50;;;8.70;80.60;;;;;;5043857;28;20208;-71
2022/12/30 08:40:10;;;;;;;21.67;9.63;;;8.70;80.70;;;;;;5037041;28;20263;-71
2022/12/30 08:42:39;;;;;;;59.33;32.97;;;8.70;80.80;;;;;;5041541;28;20466;-71
2022/12/30 08:45:08;;;;;;;26.58;15.00;;;8.70;80.90;;;;;;5040678;28;21085;-70
2022/12/30 08:47:36;;;;;;;21.93;12.07;;;8.70;80.90;;;;;;5043659;28;20208;-71
2022/12/30 08:50:05;;;;;;;27.80;19.25;;;8.70;80.90;;;;;;5043889;28;20463;-71
2022/12/30 08:52:33;;;;;;;11.60;7.37;;;8.70;81.10;;;;;;5043297;28;20237;-71
2022/12/30 08:55:01;;;;;;;18.08;7.75;;;8.70;81.00;;;;;;5042983;28;20455;-71
2022/12/30 08:57:29;;;;;;;12.02;7.68;;;8.70;81.00;;;;;;5041424;28;20227;-71
2022/12/30 08:59:58;;;;;;;18.40;10.13;;;8.70;81.10;;;;;;5042182;28;20266;-71
2022/12/30 09:02:26;;;;;;;17.23;9.57;;;8.70;81.20;;;;;;5041595;28;20255;-71
2022/12/30 09:04:55;;;;;;;14.53;8.20;;;8.60;81.20;;;;;;5042937;28;20451;-71
2022/12/30 09:07:23;;;;;;;19.73;10.60;;;8.70;81.30;;;;;;5043606;28;20450;-71
2022/12/30 09:10:12;;;;;;;17.47;12.30;;;8.70;81.50;;;;;;5043508;28;20566;-71
2022/12/30 09:12:40;;;;;;;16.52;10.77;;;8.70;81.50;;;;;;5042454;28;20473;-71
2022/12/30 09:15:10;;;;;;;11.10;5.80;;;8.70;81.40;;;;;;5043250;28;20205;-71
2022/12/30 09:17:38;;;;;;;5.30;2.65;;;8.70;81.50;;;;;;5043287;28;20561;-71
2022/12/30 09:20:07;;;;;;;5.07;2.77;;;8.70;81.50;;;;;;5043409;28;20265;-70
2022/12/30 09:22:35;;;;;;;10.80;5.27;;;8.70;81.50;;;;;;5044121;28;20477;-72
2022/12/30 09:25:04;;;;;;;9.23;4.07;;;8.70;81.50;;;;;;5043768;28;20455;-70
2022/12/30 09:27:32;;;;;;;10.73;5.53;;;8.70;81.50;;;;;;5043204;28;20451;-70
2022/12/30 09:30:00;;;;;;;14.30;4.53;;;8.70;81.60;;;;;;5042185;28;21167;-72
2022/12/30 09:32:29;;;;;;;5.82;2.85;;;8.70;81.70;;;;;;5040005;28;20228;-71
2022/12/30 09:34:57;;;;;;;6.93;2.40;;;8.80;81.70;;;;;;5043713;28;20204;-71
2022/12/30 09:37:25;;;;;;;7.88;2.45;;;8.80;81.70;;;;;;5048194;28;20587;-71
2022/12/30 09:39:53;;;;;;;12.60;3.50;;;8.80;81.70;;;;;;5058737;28;20872;-71
2022/12/30 09:45:26;;;;;;;16.92;10.95;;;8.90;81.70;;;;;;5040997;28;20458;-71
2022/12/30 09:48:00;;;;;;;18.90;11.57;;;8.90;81.90;;;;;;5041249;28;20250;-71
2022/12/30 09:50:38;;;;;;;48.60;24.50;;;8.90;81.90;;;;;;5043912;28;20205;-71
2022/12/30 09:53:13;;;;;;;36.92;19.20;;;9.00;81.90;;;;;;5039038;28;20474;-71
2022/12/30 09:55:49;;;;;;;38.10;17.85;;;9.10;81.90;;;;;;5037117;28;20673;-71
2022/12/30 09:58:28;;;;;;;15.00;6.55;;;9.10;81.80;;;;;;5045457;28;20216;-72
2022/12/30 10:01:11;;;;;;;22.90;10.23;;;9.10;81.70;;;;;;5039525;28;20236;-70
2022/12/30 10:03:41;;;;;;;27.77;11.80;;;9.20;81.70;;;;;;5037254;28;21319;-70
2022/12/30 10:06:30;;;;;;;34.17;15.73;;;9.20;81.70;;;;;;5036828;28;20477;-69
2022/12/30 10:09:19;;;;;;;28.02;11.35;;;9.20;81.70;;;;;;5040705;28;20289;-71
2022/12/30 10:12:02;;;;;;;23.90;10.87;;;9.20;81.70;;;;;;5043169;28;20915;-69
2022/12/30 10:14:37;;;;;;;29.70;12.60;;;9.20;81.80;;;;;;5042441;28;20458;-71
2022/12/30 10:17:22;;;;;;;35.85;17.83;;;9.20;81.70;;;;;;5041667;28;20523;-72
2022/12/30 10:20:00;;;;;;;25.60;12.03;;;9.30;81.70;;;;;;5042699;28;20918;-71
2022/12/30 10:22:37;;;;;;;8.30;4.57;;;9.30;81.60;;;;;;5040625;28;20486;-71
2022/12/30 10:25:23;;;;;;;36.33;13.00;;;9.30;81.40;;;;;;5043660;28;20450;-71
2022/12/30 10:27:55;;;;;;;23.63;9.10;;;9.30;81.40;;;;;;5041819;28;21072;-70
2022/12/30 10:30:28;;;;;;;15.83;8.87;;;9.30;81.60;;;;;;5040741;28;20986;-69
2022/12/30 10:33:02;;;;;;;12.57;7.67;;;9.30;81.60;;;;;;5041991;28;20474;-71
2022/12/30 10:35:33;;;;;;;12.60;7.03;;;9.30;81.50;;;;;;5045656;28;20541;-72
2022/12/30 10:38:10;;;;;;;7.70;5.00;;;9.30;81.50;;;;;;5046303;28;20475;-69
2022/12/30 10:40:48;;;;;;;14.07;6.57;;;9.30;81.50;;;;;;5045804;28;20829;-71
2022/12/30 10:43:43;;;;;;;8.33;4.70;;;9.30;81.60;;;;;;5044824;28;20486;-70
2022/12/30 10:46:27;;;;;;;9.00;5.13;;;9.30;81.40;;;;;;5043903;28;20523;-70
2022/12/30 10:49:26;;;;;;;8.03;4.93;;;9.40;81.50;;;;;;5045524;28;20450;-71
2022/12/30 10:51:56;;;;;;;6.53;5.20;;;9.40;81.50;;;;;;5045502;28;20501;-70
2022/12/30 10:54:24;;;;;;;9.07;5.47;;;9.40;81.50;;;;;;5044439;28;20455;-71
2022/12/30 10:56:52;;;;;;;8.13;5.43;;;9.40;81.50;;;;;;5045672;28;20525;-71
2022/12/30 10:59:23;;;;;;;9.10;6.17;;;9.40;81.40;;;;;;5046075;28;20512;-71
2022/12/30 11:01:58;;;;;;;8.40;3.90;;;9.40;81.50;;;;;;5044750;28;20465;-71
2022/12/30 11:04:36;;;;;;;4.33;1.80;;;9.50;81.40;;;;;;5045969;28;20525;-71
2022/12/30 11:07:08;;;;;;;3.60;1.20;;;9.50;81.40;;;;;;5066199;28;20442;-71
2022/12/30 11:09:36;;;;;;;4.47;1.67;;;9.50;81.40;;;;;;5045516;28;20459;-71
2022/12/30 11:15:18;;;;;;;5.03;2.00;;;9.60;81.50;;;;;;5044798;28;20439;-71
2022/12/30 11:17:48;;;;;;;5.60;2.10;;;9.70;81.20;;;;;;5044696;28;20471;-70
2022/12/30 11:20:38;;;;;;;4.50;1.33;;;9.70;81.20;;;;;;5045113;28;20524;-71
2022/12/30 11:23:23;;;;;;;3.23;0.97;;;9.70;81.00;;;;;;5042435;28;20486;-71
2022/12/30 11:25:52;;;;;;;6.53;1.47;;;9.70;81.00;;;;;;5044054;28;20507;-71
2022/12/30 11:28:24;;;;;;;7.70;2.00;;;9.70;81.10;;;;;;5043660;28;20458;-71
2022/12/30 11:31:02;;;;;;;3.83;1.73;;;9.80;81.00;;;;;;5047578;28;20454;-71
2022/12/30 11:33:35;;;;;;;6.37;1.67;;;9.80;81.00;;;;;;5043197;28;20569;-71
2022/12/30 11:36:15;;;;;;;9.03;1.63;;;9.80;80.80;;;;;;5066249;28;20940;-71
2022/12/30 11:38:47;;;;;;;6.57;1.90;;;9.80;80.80;;;;;;5044498;28;20474;-71
2022/12/30 11:41:25;;;;;;;6.83;2.13;;;9.80;80.80;;;;;;5043892;28;20451;-71
2022/12/30 11:44:14;;;;;;;4.10;1.40;;;9.80;80.80;;;;;;5044287;28;21346;-71
2022/12/30 11:46:45;;;;;;;6.33;1.60;;;9.90;80.70;;;;;;5043510;28;20454;-73
2022/12/30 11:49:29;;;;;;;4.00;1.00;;;9.90;80.70;;;;;;5044399;28;20443;-70
2022/12/30 11:51:58;;;;;;;15.87;9.33;;;9.90;80.60;;;;;;5044895;28;20507;-69
2022/12/30 11:54:31;;;;;;;49.30;29.73;;;10.00;80.70;;;;;;5044592;28;20482;-70
2022/12/30 11:57:01;;;;;;;27.10;14.33;;;10.00;80.60;;;;;;5043297;28;20942;-71
2022/12/30 11:59:33;;;;;;;6.53;2.80;;;10.00;80.70;;;;;;5043849;28;20516;-71
2022/12/30 12:02:05;;;;;;;5.20;2.33;;;10.10;80.60;;;;;;5044228;28;20482;-71
2022/12/30 12:04:36;;;;;;;4.00;1.90;;;10.10;80.40;;;;;;5044245;28;20455;-70
2022/12/30 12:07:06;;;;;;;4.80;1.50;;;10.10;80.20;;;;;;5044595;28;20485;-70
2022/12/30 12:09:40;;;;;;;4.03;1.20;;;10.10;80.20;;;;;;5044257;28;20451;-71
2022/12/30 12:12:13;;;;;;;3.80;1.33;;;10.10;80.30;;;;;;5043399;28;20474;-70
2022/12/30 12:15:03;;;;;;;3.33;1.07;;;10.10;80.30;;;;;;5043932;28;20463;-71
2022/12/30 12:17:43;;;;;;;4.13;1.70;;;10.20;80.10;;;;;;5044299;28;20471;-71
2022/12/30 12:20:19;;;;;;;5.33;1.60;;;10.20;80.00;;;;;;5042438;28;20455;-71
2022/12/30 12:23:09;;;;;;;3.90;1.50;;;10.20;79.90;;;;;;5043475;28;20497;-70
2022/12/30 12:25:43;;;;;;;3.50;1.00;;;10.30;79.80;;;;;;5042685;28;21134;-70
2022/12/30 12:28:12;;;;;;;4.43;1.20;;;10.30;79.80;;;;;;5043630;28;20454;-70
2022/12/30 12:30:55;;;;;;;6.50;1.20;;;10.30;79.80;;;;;;5043779;28;20459;-69
2022/12/30 12:33:30;;;;;;;4.30;1.10;;;10.30;79.70;;;;;;5043415;28;20471;-69
2022/12/30 12:36:05;;;;;;;4.53;1.00;;;10.30;79.70;;;;;;5043635;28;20458;-69
2022/12/30 12:38:47;;;;;;;8.10;1.90;;;10.30;79.60;;;;;;5042952;28;20466;-69
2022/12/30 12:41:28;;;;;;;5.40;2.60;;;10.40;79.50;;;;;;5040657;28;20549;-70
2022/12/30 12:44:14;;;;;;;7.10;2.40;;;10.30;79.50;;;;;;5043618;28;20471;-70
2022/12/30 12:46:52;;;;;;;4.33;1.53;;;10.40;79.50;;;;;;5042820;28;20497;-70
2022/12/30 12:49:42;;;;;;;3.90;1.07;;;10.40;79.50;;;;;;5043188;28;20862;-70
2022/12/30 12:52:21;;;;;;;7.03;3.00;;;10.40;79.20;;;;;;5037556;28;20494;-71
2022/12/30 12:55:18;;;;;;;4.60;2.00;;;10.40;79.20;;;;;;5042227;28;20466;-70
2022/12/30 12:57:54;;;;;;;8.10;2.63;;;10.40;79.30;;;;;;5043060;28;20494;-70
2022/12/30 13:00:24;;;;;;;6.73;3.40;;;10.40;79.20;;;;;;5043551;28;21026;-70
2022/12/30 13:03:30;;;;;;;7.80;3.47;;;10.40;79.10;;;;;;5041565;28;20466;-71
2022/12/30 13:06:06;;;;;;;31.37;11.90;;;10.40;78.80;;;;;;5037435;28;20509;-71
2022/12/30 13:08:58;;;;;;;16.07;7.40;;;10.40;78.90;;;;;;5042514;28;20457;-70
2022/12/30 13:11:38;;;;;;;9.70;4.80;;;10.40;78.80;;;;;;5040870;28;20447;-70
2022/12/30 13:14:19;;;;;;;6.50;2.70;;;10.40;78.80;;;;;;5042856;28;20447;-71
2022/12/30 13:16:52;;;;;;;5.37;2.73;;;10.40;78.80;;;;;;5040345;28;20458;-71
2022/12/30 13:19:24;;;;;;;10.00;5.10;;;10.40;78.90;;;;;;5043328;28;20954;-71
2022/12/30 13:21:56;;;;;;;6.57;3.00;;;10.40;78.80;;;;;;5042268;28;20451;-71
2022/12/30 13:24:29;;;;;;;5.07;2.00;;;10.40;78.70;;;;;;5042364;28;20447;-71
2022/12/30 13:26:57;;;;;;;7.53;3.27;;;10.40;78.70;;;;;;5042760;28;20493;-70
2022/12/30 13:29:33;;;;;;;6.90;2.33;;;10.40;78.60;;;;;;5042744;28;20459;-70
2022/12/30 13:32:07;;;;;;;4.80;1.40;;;10.40;78.60;;;;;;5045221;28;20913;-71
2022/12/30 13:34:43;;;;;;;5.53;1.30;;;10.40;78.50;;;;;;5039870;28;20446;-70
2022/12/30 13:37:24;;;;;;;6.73;1.60;;;10.40;78.40;;;;;;5042068;28;20495;-70
2022/12/30 13:39:58;;;;;;;4.13;1.10;;;10.30;78.40;;;;;;5040717;28;20463;-70
2022/12/30 13:42:56;;;;;;;3.73;1.13;;;10.30;78.60;;;;;;5041747;28;20482;-70
2022/12/30 13:45:27;;;;;;;4.60;1.20;;;10.30;78.50;;;;;;5041276;28;20451;-70
2022/12/30 13:48:06;;;;;;;5.27;1.50;;;10.30;78.50;;;;;;5041008;28;20453;-70
2022/12/30 13:50:35;;;;;;;4.27;1.30;;;10.40;78.40;;;;;;5041342;28;20450;-70
2022/12/30 13:53:05;;;;;;;5.70;2.10;;;10.40;78.30;;;;;;5041375;28;20525;-70
2022/12/30 13:55:49;;;;;;;6.00;2.33;;;10.30;78.40;;;;;;5042267;28;20454;-70
2022/12/30 13:58:22;;;;;;;3.90;1.43;;;10.30;78.40;;;;;;5041113;28;20486;-70
2022/12/30 14:01:25;;;;;;;20.10;5.00;;;10.30;78.30;;;;;;5040685;28;20442;-70
2022/12/30 14:04:34;;;;;;;29.20;14.47;;;10.40;78.30;;;;;;5056524;28;20478;-70
2022/12/30 14:07:02;;;;;;;39.47;19.50;;;10.30;78.20;;;;;;5036794;28;20508;-70